MSC India — CQIM9 — position and weather

sailwx.info

Track history (hours):
 
Tides and Currents Weather Stations Pressure Air Temp Water Temp Dewpoint Dewpoint Depression Visibility Wind Speed Wind Dir Waves Ship Positions

MSC India

Last reported at 2018-Jul-19 23:08 UTC. Time now 2018-Jul-20 01:04 UTC.
Position N 32°33' W 010°29'.

Length 278 m; draft 12.3 m.

Type: Ship (hazmat cat A). MMSI: 255806005.

Date/timePositionNaut miles runAvg speedWind from/ knotsBaromVisibWave heightAir tempDewpointWater temp
2018-Jul-19 23:08N 32°33' W 010°29'915.8
2018-Jul-19 22:33N 32°39' W 010°21'215.9
2018-Jul-19 22:28N 32°40' W 010°20'715.9
2018-Jul-19 22:00N 32°46' W 010°14'815.8
2018-Jul-19 21:30N 32°51' W 010°07'816.0
2018-Jul-19 20:58N 32°57' W 009°60'3715.9
2018-Jul-19 18:38N 33°23' W 009°28'915.8
2018-Jul-19 18:04N 33°30' W 009°21'215.5
2018-Jul-19 17:58N 33°31' W 009°19'915.7
2018-Jul-19 17:22N 33°37' W 009°11'616.0
2018-Jul-19 17:00N 33°41' W 009°06'816.0
2018-Jul-19 16:30N 33°47' W 008°60'1415.9
2018-Jul-19 15:36N 33°57' W 008°47'315.8
2018-Jul-19 15:24N 33°59' W 008°44'615.8
2018-Jul-19 15:00N 34°04' W 008°39'1915.7
2018-Jul-19 13:47N 34°17' W 008°22'515.8
2018-Jul-19 13:28N 34°20' W 008°18'715.8
2018-Jul-19 13:00N 34°25' W 008°12'815.8
2018-Jul-19 12:30N 34°31' W 008°05'916.0
2018-Jul-19 11:57N 34°37' W 007°58'1415.8
2018-Jul-19 11:04N 34°47' W 007°45'415.7
2018-Jul-19 10:49N 34°50' W 007°42'715.7
2018-Jul-19 10:22N 34°55' W 007°36'815.6
2018-Jul-19 09:52N 35°00' W 007°29'615.5
2018-Jul-19 09:28N 35°05' W 007°24'715.7
2018-Jul-19 09:00N 35°10' W 007°18'815.6
2018-Jul-19 08:28N 35°16' W 007°10'915.5
2018-Jul-19 07:51N 35°23' W 007°02'715.6
2018-Jul-19 07:25N 35°27' W 006°56'615.7
2018-Jul-19 07:00N 35°32' W 006°50'815.4
2018-Jul-19 06:30N 35°37' W 006°43'815.5
2018-Jul-19 05:58N 35°43' W 006°36'715.7
2018-Jul-19 05:30N 35°48' W 006°30'915.3
2018-Jul-19 04:56N 35°55' W 006°23'614.2
2018-Jul-19 04:30N 35°58' W 006°16'1015.9
2018-Jul-19 03:52N 35°58' W 006°03'615.7
2018-Jul-19 03:30N 35°58' W 005°57'24615.1
2018-Jul-18 11:16N 37°11' W 001°05'1215.8
2018-Jul-18 10:30N 37°20' W 000°54'1019.5
2018-Jul-18 10:00N 37°26' W 000°45'1020.8
2018-Jul-18 09:30N 37°33' W 000°35'1020.8
2018-Jul-18 09:00N 37°42' W 000°28'1020.7
2018-Jul-18 08:30N 37°50' W 000°20'9216.9
2018-Jul-18 03:02N 39°23' W 000°14'117.0
2018-Jul-18 02:59N 39°23' W 000°14'5 8.0
2018-Jul-18 02:23N 39°26' W 000°20'0 0.0
2018-Jul-18 01:55N 39°26' W 000°20'0 0.0
2018-Jul-17 23:55N 39°26' W 000°20'0 0.0
2018-Jul-17 20:25N 39°26' W 000°20'0 0.0
2018-Jul-17 19:49N 39°26' W 000°20'0 0.0
2018-Jul-17 19:25N 39°26' W 000°20'0 0.0
2018-Jul-17 18:19N 39°26' W 000°20'0 0.0
2018-Jul-17 16:07N 39°26' W 000°20'0 0.0
2018-Jul-17 15:49N 39°26' W 000°20'0 0.0
2018-Jul-17 14:55N 39°26' W 000°20'0 0.0
2018-Jul-17 14:07N 39°26' W 000°20'0 0.0
2018-Jul-17 13:55N 39°26' W 000°20'0 0.0
2018-Jul-17 11:37N 39°26' W 000°20'0 0.0
2018-Jul-17 11:25N 39°26' W 000°20'0 0.0
2018-Jul-17 10:43N 39°26' W 000°20'0 0.0
2018-Jul-17 10:25N 39°26' W 000°20'0 0.0
2018-Jul-17 09:40N 39°26' W 000°20'0 0.0
2018-Jul-17 09:25N 39°26' W 000°20'0 0.0
2018-Jul-17 08:55N 39°26' W 000°20'0 0.0
2018-Jul-17 08:25N 39°26' W 000°20'0 0.0
2018-Jul-17 07:43N 39°26' W 000°20'0 0.0
2018-Jul-17 07:13N 39°26' W 000°20'0 0.0
2018-Jul-17 04:31N 39°26' W 000°20'0 0.0
2018-Jul-17 04:25N 39°26' W 000°20'0 0.0
2018-Jul-17 03:55N 39°26' W 000°20'0 0.0
2018-Jul-17 03:25N 39°26' W 000°20'0 0.0
2018-Jul-17 02:55N 39°26' W 000°20'0 0.0
2018-Jul-17 02:25N 39°26' W 000°20'0 0.0
2018-Jul-17 01:55N 39°26' W 000°20'0 0.0
2018-Jul-17 01:25N 39°26' W 000°20'0 0.0
2018-Jul-17 00:55N 39°26' W 000°20'0 0.0
2018-Jul-17 00:19N 39°26' W 000°20'0 0.0
2018-Jul-16 18:37N 39°26' W 000°20'0 0.0
2018-Jul-16 17:37N 39°26' W 000°20'0 0.0
2018-Jul-16 17:25N 39°26' W 000°20'0 0.0
2018-Jul-16 16:01N 39°26' W 000°20'0 0.0
2018-Jul-16 15:55N 39°26' W 000°20'0 0.0
2018-Jul-16 15:25N 39°26' W 000°20'0 0.0
2018-Jul-16 14:55N 39°26' W 000°20'0 0.0
2018-Jul-16 14:25N 39°26' W 000°20'0 0.0
2018-Jul-16 13:59N 39°26' W 000°20'1 1.4
2018-Jul-16 13:31N 39°26' W 000°19'4 7.1
2018-Jul-16 13:00N 39°25' W 000°15'3 0.4
2018-Jul-16 04:26N 39°22' W 000°12'4 9.9
2018-Jul-16 04:00N 39°25' W 000°16'3 5.7
2018-Jul-16 03:30N 39°26' W 000°20'0 0.0
2018-Jul-16 02:53N 39°26' W 000°20'0 0.0
2018-Jul-16 02:30N 39°26' W 000°20'0 0.0
2018-Jul-16 00:33N 39°26' W 000°20'0 0.0
2018-Jul-16 00:30N 39°26' W 000°20'0 0.0
2018-Jul-15 23:51N 39°26' W 000°20'0 0.0
2018-Jul-15 23:29N 39°26' W 000°20'0 0.0
2018-Jul-15 22:59N 39°26' W 000°20'0 0.0
2018-Jul-15 21:48N 39°26' W 000°20'0 0.0
2018-Jul-15 17:06N 39°26' W 000°20'0 0.0
2018-Jul-15 16:59N 39°26' W 000°20'0 0.0
2018-Jul-15 16:26N 39°26' W 000°20'1 2.4
2018-Jul-15 16:00N 39°26' W 000°18'3 4.6
2018-Jul-15 15:26N 39°25' W 000°15'4 8.1
2018-Jul-15 14:58N 39°23' W 000°11'5 9.6
2018-Jul-15 14:25N 39°19' W 000°06'2 2.6
2018-Jul-15 13:49N 39°18' W 000°05'0 0.5
2018-Jul-15 13:25N 39°18' W 000°05'0 0.5
2018-Jul-15 12:59N 39°18' W 000°05'0 0.4
2018-Jul-15 12:24N 39°18' W 000°04'0 0.3
2018-Jul-15 11:59N 39°18' W 000°04'2 0.3
2018-Jul-15 06:16N 39°17' W 000°02'0 0.4
2018-Jul-15 05:58N 39°18' W 000°02'81 7.0
2018-Jul-14 18:22N 40°05' E 001°23'613.3
2018-Jul-14 17:57N 40°08' E 001°29'613.4
2018-Jul-14 17:30N 40°12' E 001°35'713.6
2018-Jul-14 17:00N 40°15' E 001°42'713.6
2018-Jul-14 16:30N 40°20' E 001°50'713.5
2018-Jul-14 15:59N 40°24' E 001°57'613.3
2018-Jul-14 15:30N 40°27' E 002°04'1013.3
2018-Jul-14 14:44N 40°33' E 002°15'1013.2
2018-Jul-14 14:00N 40°39' E 002°25'713.2
2018-Jul-14 13:30N 40°43' E 002°32'612.6
2018-Jul-14 13:00N 40°47' E 002°38'611.1
2018-Jul-14 12:30N 40°51' E 002°44'611.1
2018-Jul-14 12:00N 40°54' E 002°50'611.2
2018-Jul-14 11:30N 40°57' E 002°56'611.3
2018-Jul-14 11:00N 41°01' E 003°02'611.3
2018-Jul-14 10:30N 41°04' E 003°08'611.1
2018-Jul-14 09:59N 41°07' E 003°14'611.2
2018-Jul-14 09:27N 41°11' E 003°21'511.9
2018-Jul-14 09:00N 41°14' E 003°26'1819.4
2018-Jul-14 08:05N 41°25' E 003°45'220.1
2018-Jul-14 07:59N 41°26' E 003°47'1020.1
2018-Jul-14 07:30N 41°32' E 003°57'1020.0
2018-Jul-14 07:00N 41°38' E 004°08'1019.3
2018-Jul-14 06:30N 41°44' E 004°18'713.8
2018-Jul-14 06:00N 41°48' E 004°26'611.5
2018-Jul-14 05:30N 41°51' E 004°32'611.5
2018-Jul-14 05:00N 41°55' E 004°38'611.5
2018-Jul-14 04:30N 41°58' E 004°44'611.6
2018-Jul-14 04:00N 42°02' E 004°51'611.7
2018-Jul-14 03:30N 42°05' E 004°57'611.6
2018-Jul-14 03:00N 42°09' E 005°03'611.6
2018-Jul-14 02:30N 42°12' E 005°10'611.6
2018-Jul-14 02:00N 42°16' E 005°16'611.6
2018-Jul-14 01:30N 42°19' E 005°22'611.6
2018-Jul-14 01:00N 42°23' E 005°28'611.6
2018-Jul-14 00:30N 42°26' E 005°35'611.6
2018-Jul-13 23:58N 42°30' E 005°41'511.5
2018-Jul-13 23:30N 42°33' E 005°47'611.6
2018-Jul-13 23:00N 42°37' E 005°53'611.5
2018-Jul-13 22:30N 42°40' E 005°60'611.3
2018-Jul-13 22:00N 42°44' E 006°05'611.7
2018-Jul-13 21:30N 42°47' E 006°12'612.0
2018-Jul-13 21:00N 42°51' E 006°19'612.1
2018-Jul-13 20:30N 42°54' E 006°25'611.9
2018-Jul-13 20:00N 42°58' E 006°32'611.9
2018-Jul-13 19:30N 43°01' E 006°38'612.1
2018-Jul-13 19:00N 43°05' E 006°45'612.2
2018-Jul-13 18:30N 43°09' E 006°51'612.3
2018-Jul-13 18:00N 43°12' E 006°58'612.1
2018-Jul-13 17:30N 43°16' E 007°05'612.2
2018-Jul-13 17:00N 43°19' E 007°12'612.1
2018-Jul-13 16:30N 43°23' E 007°18'611.9
2018-Jul-13 16:00N 43°27' E 007°25'611.6
2018-Jul-13 15:30N 43°30' E 007°31'711.9
2018-Jul-13 14:55N 43°35' E 007°39'1312.0
2018-Jul-13 13:50N 43°42' E 007°53'411.9
2018-Jul-13 13:29N 43°45' E 007°58'612.0
2018-Jul-13 13:00N 43°48' E 008°04'612.1
2018-Jul-13 12:30N 43°52' E 008°11'612.0
2018-Jul-13 12:00N 43°56' E 008°17'612.4
2018-Jul-13 11:30N 44°01' E 008°22'714.5
2018-Jul-13 11:00N 44°07' E 008°28'714.6
2018-Jul-13 10:30N 44°13' E 008°34'714.6
2018-Jul-13 10:00N 44°19' E 008°40'713.1
2018-Jul-13 09:30N 44°25' E 008°45'2 4.1
2018-Jul-13 08:58N 44°25' E 008°48'0 0.0
2018-Jul-13 08:28N 44°25' E 008°48'0 0.0
2018-Jul-13 07:58N 44°25' E 008°48'0 0.0
2018-Jul-13 07:28N 44°25' E 008°48'0 0.0
2018-Jul-13 06:58N 44°25' E 008°48'0 0.0
2018-Jul-13 06:28N 44°25' E 008°48'0 0.0
2018-Jul-13 05:58N 44°25' E 008°48'0 0.0
2018-Jul-13 05:28N 44°25' E 008°48'0 0.0
2018-Jul-13 04:58N 44°25' E 008°48'0 0.0
2018-Jul-13 04:28N 44°25' E 008°48'0 0.0
2018-Jul-13 03:58N 44°25' E 008°48'0 0.0
2018-Jul-13 03:28N 44°25' E 008°48'0 0.0
2018-Jul-13 02:58N 44°25' E 008°48'0 0.0
2018-Jul-13 02:28N 44°25' E 008°48'0 0.0
2018-Jul-13 01:58N 44°25' E 008°48'0 0.0
2018-Jul-13 01:28N 44°25' E 008°48'0 0.0
2018-Jul-13 00:58N 44°25' E 008°48'0 0.0
2018-Jul-13 00:28N 44°25' E 008°48'0 0.0
2018-Jul-12 23:58N 44°25' E 008°48'0 0.0
2018-Jul-12 23:28N 44°25' E 008°48'0 0.0
2018-Jul-12 22:58N 44°25' E 008°48'0 0.0
2018-Jul-12 22:28N 44°25' E 008°48'0 0.0
2018-Jul-12 21:58N 44°25' E 008°48'0 0.0
2018-Jul-12 21:28N 44°25' E 008°48'0 0.0
2018-Jul-12 20:58N 44°25' E 008°48'0 0.0
2018-Jul-12 20:28N 44°25' E 008°48'0 0.0
2018-Jul-12 19:58N 44°25' E 008°48'0 0.0
2018-Jul-12 19:28N 44°25' E 008°48'0 0.0
2018-Jul-12 18:58N 44°25' E 008°48'0 0.0
2018-Jul-12 18:28N 44°25' E 008°48'0 0.0
2018-Jul-12 17:58N 44°25' E 008°48'0 0.0
2018-Jul-12 17:28N 44°25' E 008°48'0 0.0
2018-Jul-12 16:58N 44°25' E 008°48'0 0.0
2018-Jul-12 16:28N 44°25' E 008°48'0 0.0
2018-Jul-12 15:58N 44°25' E 008°48'0 0.0
2018-Jul-12 15:28N 44°25' E 008°48'0 0.4
2018-Jul-12 15:01N 44°25' E 008°47'3 5.4
2018-Jul-12 14:31N 44°24' E 008°44'4 8.1
2018-Jul-12 14:01N 44°20' E 008°44'5 9.8
2018-Jul-12 13:31N 44°15' E 008°48'713.2
2018-Jul-12 13:00N 44°09' E 008°51'816.5
2018-Jul-12 12:30N 44°02' E 008°56'816.6
2018-Jul-12 12:00N 43°55' E 009°01'816.9
2018-Jul-12 11:30N 43°47' E 009°07'816.9
2018-Jul-12 11:00N 43°39' E 009°12'816.9
2018-Jul-12 10:30N 43°32' E 009°18'816.9
2018-Jul-12 10:00N 43°24' E 009°23'816.3
2018-Jul-12 09:30N 43°17' E 009°28'815.8
2018-Jul-12 09:00N 43°10' E 009°33'815.9
2018-Jul-12 08:30N 43°03' E 009°38'2316.4
2018-Jul-12 07:07N 42°41' E 009°48'218.6
2018-Jul-12 06:59N 42°39' E 009°49'3518.3
2018-Jul-12 05:04N 42°10' E 010°15'119.4
2018-Jul-12 05:00N 42°09' E 010°17'8218.2
2018-Jul-12 00:30N 41°15' E 011°39'917.9
2018-Jul-12 00:01N 41°10' E 011°48'917.8
2018-Jul-11 23:30N 41°04' E 011°57'3017.9
2018-Jul-11 21:49N 40°44' E 012°27'618.3
2018-Jul-11 21:30N 40°40' E 012°33'918.2
2018-Jul-11 21:00N 40°34' E 012°42'918.4
2018-Jul-11 20:30N 40°28' E 012°51'1118.5
2018-Jul-11 19:54N 40°21' E 013°02'718.7
2018-Jul-11 19:30N 40°16' E 013°10'1718.6
2018-Jul-11 18:34N 40°05' E 013°27'118.6
2018-Jul-11 18:30N 40°04' E 013°28'918.5
2018-Jul-11 18:00N 39°58' E 013°37'3318.3
2018-Jul-11 16:11N 39°36' E 014°10'318.2
2018-Jul-11 16:00N 39°34' E 014°13'2018.3
2018-Jul-11 14:55N 39°21' E 014°33'3618.4
2018-Jul-11 12:58N 38°58' E 015°07'1418.5
2018-Jul-11 12:14N 38°49' E 015°20'518.6
2018-Jul-11 11:59N 38°45' E 015°25'919.0
2018-Jul-11 11:30N 38°39' E 015°34'1020.5
2018-Jul-11 11:00N 38°33' E 015°44'917.3
2018-Jul-11 10:31N 38°28' E 015°53'2 2.7
2018-Jul-11 09:57N 38°28' E 015°55'0 0.0
2018-Jul-11 09:27N 38°28' E 015°55'0 0.0
2018-Jul-11 08:33N 38°28' E 015°55'0 0.0
2018-Jul-11 08:21N 38°28' E 015°55'0 0.0
2018-Jul-11 07:27N 38°28' E 015°55'0 0.0
2018-Jul-11 06:51N 38°28' E 015°55'0 0.0
2018-Jul-11 06:15N 38°28' E 015°55'0 0.0
2018-Jul-11 05:57N 38°28' E 015°55'0 0.0
2018-Jul-11 05:27N 38°28' E 015°55'0 0.0
2018-Jul-11 04:57N 38°28' E 015°55'0 0.0
2018-Jul-11 04:18N 38°28' E 015°55'0 0.0
2018-Jul-11 04:00N 38°28' E 015°55'0 0.0
2018-Jul-11 03:24N 38°28' E 015°55'0 0.0
2018-Jul-11 03:00N 38°28' E 015°55'0 0.0
2018-Jul-11 02:18N 38°28' E 015°55'0 0.0
2018-Jul-11 01:54N 38°28' E 015°55'0 0.0
2018-Jul-11 01:30N 38°28' E 015°55'0 0.0
2018-Jul-11 01:00N 38°28' E 015°55'0 0.0
2018-Jul-11 00:30N 38°28' E 015°55'0 0.0
2018-Jul-10 23:36N 38°28' E 015°55'0 0.0
2018-Jul-10 23:30N 38°28' E 015°55'0 0.0
2018-Jul-10 21:18N 38°28' E 015°55'0 0.0
2018-Jul-10 18:06N 38°28' E 015°55'0 0.0
2018-Jul-10 18:00N 38°28' E 015°55'0 0.0
2018-Jul-10 15:54N 38°28' E 015°55'0 0.0
2018-Jul-10 15:30N 38°28' E 015°55'0 0.0
2018-Jul-10 14:54N 38°28' E 015°55'0 0.0
2018-Jul-10 14:30N 38°28' E 015°55'0 0.0
2018-Jul-10 14:00N 38°28' E 015°55'0 0.0
2018-Jul-10 13:06N 38°28' E 015°55'0 0.0
2018-Jul-10 12:54N 38°28' E 015°55'0 0.0
2018-Jul-10 12:30N 38°28' E 015°55'0 0.0
2018-Jul-10 11:06N 38°28' E 015°55'0 0.0
2018-Jul-10 11:00N 38°28' E 015°55'0 0.4
2018-Jul-10 10:30N 38°28' E 015°55'0 0.0
2018-Jul-10 10:00N 38°28' E 015°55'0 0.0
2018-Jul-10 09:30N 38°28' E 015°55'0 0.0
2018-Jul-10 06:45N 38°28' E 015°55'0 0.0
2018-Jul-10 06:21N 38°28' E 015°55'0 0.0
2018-Jul-10 05:45N 38°28' E 015°55'0 0.0
2018-Jul-10 02:51N 38°28' E 015°55'0 0.0
2018-Jul-10 01:21N 38°28' E 015°55'0 0.0
2018-Jul-10 00:33N 38°28' E 015°55'0 0.0
2018-Jul-09 23:51N 38°28' E 015°55'0 0.0
2018-Jul-09 23:27N 38°28' E 015°55'  
Track history (hours):
 
Tides and Currents Weather Stations Pressure Air Temp Water Temp Dewpoint Dewpoint Depression Visibility Wind Speed Wind Dir Waves Ship Positions

MSC India

Last reported at 2018-Jul-19 23:08 UTC. Time now 2018-Jul-20 01:04 UTC.
Position N 32°33' W 010°29'.

Length 278 m; draft 12.3 m.

Type: Ship (hazmat cat A). MMSI: 255806005.

Date/timePositionNaut miles runAvg speedWind from/ knotsBaromVisibWave heightAir tempDewpointWater temp
2018-Jul-19 23:08N 32°33' W 010°29'915.8
2018-Jul-19 22:33N 32°39' W 010°21'215.9
2018-Jul-19 22:28N 32°40' W 010°20'715.9
2018-Jul-19 22:00N 32°46' W 010°14'815.8
2018-Jul-19 21:30N 32°51' W 010°07'816.0
2018-Jul-19 20:58N 32°57' W 009°60'3715.9
2018-Jul-19 18:38N 33°23' W 009°28'915.8
2018-Jul-19 18:04N 33°30' W 009°21'215.5
2018-Jul-19 17:58N 33°31' W 009°19'915.7
2018-Jul-19 17:22N 33°37' W 009°11'616.0
2018-Jul-19 17:00N 33°41' W 009°06'816.0
2018-Jul-19 16:30N 33°47' W 008°60'1415.9
2018-Jul-19 15:36N 33°57' W 008°47'315.8
2018-Jul-19 15:24N 33°59' W 008°44'615.8
2018-Jul-19 15:00N 34°04' W 008°39'1915.7
2018-Jul-19 13:47N 34°17' W 008°22'515.8
2018-Jul-19 13:28N 34°20' W 008°18'715.8
2018-Jul-19 13:00N 34°25' W 008°12'815.8
2018-Jul-19 12:30N 34°31' W 008°05'916.0
2018-Jul-19 11:57N 34°37' W 007°58'1415.8
2018-Jul-19 11:04N 34°47' W 007°45'415.7
2018-Jul-19 10:49N 34°50' W 007°42'715.7
2018-Jul-19 10:22N 34°55' W 007°36'815.6
2018-Jul-19 09:52N 35°00' W 007°29'615.5
2018-Jul-19 09:28N 35°05' W 007°24'715.7
2018-Jul-19 09:00N 35°10' W 007°18'815.6
2018-Jul-19 08:28N 35°16' W 007°10'915.5
2018-Jul-19 07:51N 35°23' W 007°02'715.6
2018-Jul-19 07:25N 35°27' W 006°56'615.7
2018-Jul-19 07:00N 35°32' W 006°50'815.4
2018-Jul-19 06:30N 35°37' W 006°43'815.5
2018-Jul-19 05:58N 35°43' W 006°36'715.7
2018-Jul-19 05:30N 35°48' W 006°30'915.3
2018-Jul-19 04:56N 35°55' W 006°23'614.2
2018-Jul-19 04:30N 35°58' W 006°16'1015.9
2018-Jul-19 03:52N 35°58' W 006°03'615.7
2018-Jul-19 03:30N 35°58' W 005°57'24615.1
2018-Jul-18 11:16N 37°11' W 001°05'1215.8
2018-Jul-18 10:30N 37°20' W 000°54'1019.5
2018-Jul-18 10:00N 37°26' W 000°45'1020.8
2018-Jul-18 09:30N 37°33' W 000°35'1020.8
2018-Jul-18 09:00N 37°42' W 000°28'1020.7
2018-Jul-18 08:30N 37°50' W 000°20'9216.9
2018-Jul-18 03:02N 39°23' W 000°14'117.0
2018-Jul-18 02:59N 39°23' W 000°14'5 8.0
2018-Jul-18 02:23N 39°26' W 000°20'0 0.0
2018-Jul-18 01:55N 39°26' W 000°20'0 0.0
2018-Jul-17 23:55N 39°26' W 000°20'0 0.0
2018-Jul-17 20:25N 39°26' W 000°20'0 0.0
2018-Jul-17 19:49N 39°26' W 000°20'0 0.0
2018-Jul-17 19:25N 39°26' W 000°20'0 0.0
2018-Jul-17 18:19N 39°26' W 000°20'0 0.0
2018-Jul-17 16:07N 39°26' W 000°20'0 0.0
2018-Jul-17 15:49N 39°26' W 000°20'0 0.0
2018-Jul-17 14:55N 39°26' W 000°20'0 0.0
2018-Jul-17 14:07N 39°26' W 000°20'0 0.0
2018-Jul-17 13:55N 39°26' W 000°20'0 0.0
2018-Jul-17 11:37N 39°26' W 000°20'0 0.0
2018-Jul-17 11:25N 39°26' W 000°20'0 0.0
2018-Jul-17 10:43N 39°26' W 000°20'0 0.0
2018-Jul-17 10:25N 39°26' W 000°20'0 0.0
2018-Jul-17 09:40N 39°26' W 000°20'0 0.0
2018-Jul-17 09:25N 39°26' W 000°20'0 0.0
2018-Jul-17 08:55N 39°26' W 000°20'0 0.0
2018-Jul-17 08:25N 39°26' W 000°20'0 0.0
2018-Jul-17 07:43N 39°26' W 000°20'0 0.0
2018-Jul-17 07:13N 39°26' W 000°20'0 0.0
2018-Jul-17 04:31N 39°26' W 000°20'0 0.0
2018-Jul-17 04:25N 39°26' W 000°20'0 0.0
2018-Jul-17 03:55N 39°26' W 000°20'0 0.0
2018-Jul-17 03:25N 39°26' W 000°20'0 0.0
2018-Jul-17 02:55N 39°26' W 000°20'0 0.0
2018-Jul-17 02:25N 39°26' W 000°20'0 0.0
2018-Jul-17 01:55N 39°26' W 000°20'0 0.0
2018-Jul-17 01:25N 39°26' W 000°20'0 0.0
2018-Jul-17 00:55N 39°26' W 000°20'0 0.0
2018-Jul-17 00:19N 39°26' W 000°20'0 0.0
2018-Jul-16 18:37N 39°26' W 000°20'0 0.0
2018-Jul-16 17:37N 39°26' W 000°20'0 0.0
2018-Jul-16 17:25N 39°26' W 000°20'0 0.0
2018-Jul-16 16:01N 39°26' W 000°20'0 0.0
2018-Jul-16 15:55N 39°26' W 000°20'0 0.0
2018-Jul-16 15:25N 39°26' W 000°20'0 0.0
2018-Jul-16 14:55N 39°26' W 000°20'0 0.0
2018-Jul-16 14:25N 39°26' W 000°20'0 0.0
2018-Jul-16 13:59N 39°26' W 000°20'1 1.4
2018-Jul-16 13:31N 39°26' W 000°19'4 7.1
2018-Jul-16 13:00N 39°25' W 000°15'3 0.4
2018-Jul-16 04:26N 39°22' W 000°12'4 9.9
2018-Jul-16 04:00N 39°25' W 000°16'3 5.7
2018-Jul-16 03:30N 39°26' W 000°20'0 0.0
2018-Jul-16 02:53N 39°26' W 000°20'0 0.0
2018-Jul-16 02:30N 39°26' W 000°20'0 0.0
2018-Jul-16 00:33N 39°26' W 000°20'0 0.0
2018-Jul-16 00:30N 39°26' W 000°20'0 0.0
2018-Jul-15 23:51N 39°26' W 000°20'0 0.0
2018-Jul-15 23:29N 39°26' W 000°20'0 0.0
2018-Jul-15 22:59N 39°26' W 000°20'0 0.0
2018-Jul-15 21:48N 39°26' W 000°20'0 0.0
2018-Jul-15 17:06N 39°26' W 000°20'0 0.0
2018-Jul-15 16:59N 39°26' W 000°20'0 0.0
2018-Jul-15 16:26N 39°26' W 000°20'1 2.4
2018-Jul-15 16:00N 39°26' W 000°18'3 4.6
2018-Jul-15 15:26N 39°25' W 000°15'4 8.1
2018-Jul-15 14:58N 39°23' W 000°11'5 9.6
2018-Jul-15 14:25N 39°19' W 000°06'2 2.6
2018-Jul-15 13:49N 39°18' W 000°05'0 0.5
2018-Jul-15 13:25N 39°18' W 000°05'0 0.5
2018-Jul-15 12:59N 39°18' W 000°05'0 0.4
2018-Jul-15 12:24N 39°18' W 000°04'0 0.3
2018-Jul-15 11:59N 39°18' W 000°04'2 0.3
2018-Jul-15 06:16N 39°17' W 000°02'0 0.4
2018-Jul-15 05:58N 39°18' W 000°02'81 7.0
2018-Jul-14 18:22N 40°05' E 001°23'613.3
2018-Jul-14 17:57N 40°08' E 001°29'613.4
2018-Jul-14 17:30N 40°12' E 001°35'713.6
2018-Jul-14 17:00N 40°15' E 001°42'713.6
2018-Jul-14 16:30N 40°20' E 001°50'713.5
2018-Jul-14 15:59N 40°24' E 001°57'613.3
2018-Jul-14 15:30N 40°27' E 002°04'1013.3
2018-Jul-14 14:44N 40°33' E 002°15'1013.2
2018-Jul-14 14:00N 40°39' E 002°25'713.2
2018-Jul-14 13:30N 40°43' E 002°32'612.6
2018-Jul-14 13:00N 40°47' E 002°38'611.1
2018-Jul-14 12:30N 40°51' E 002°44'611.1
2018-Jul-14 12:00N 40°54' E 002°50'611.2
2018-Jul-14 11:30N 40°57' E 002°56'611.3
2018-Jul-14 11:00N 41°01' E 003°02'611.3
2018-Jul-14 10:30N 41°04' E 003°08'611.1
2018-Jul-14 09:59N 41°07' E 003°14'611.2
2018-Jul-14 09:27N 41°11' E 003°21'511.9
2018-Jul-14 09:00N 41°14' E 003°26'1819.4
2018-Jul-14 08:05N 41°25' E 003°45'220.1
2018-Jul-14 07:59N 41°26' E 003°47'1020.1
2018-Jul-14 07:30N 41°32' E 003°57'1020.0
2018-Jul-14 07:00N 41°38' E 004°08'1019.3
2018-Jul-14 06:30N 41°44' E 004°18'713.8
2018-Jul-14 06:00N 41°48' E 004°26'611.5
2018-Jul-14 05:30N 41°51' E 004°32'611.5
2018-Jul-14 05:00N 41°55' E 004°38'611.5
2018-Jul-14 04:30N 41°58' E 004°44'611.6
2018-Jul-14 04:00N 42°02' E 004°51'611.7
2018-Jul-14 03:30N 42°05' E 004°57'611.6
2018-Jul-14 03:00N 42°09' E 005°03'611.6
2018-Jul-14 02:30N 42°12' E 005°10'611.6
2018-Jul-14 02:00N 42°16' E 005°16'611.6
2018-Jul-14 01:30N 42°19' E 005°22'611.6
2018-Jul-14 01:00N 42°23' E 005°28'611.6
2018-Jul-14 00:30N 42°26' E 005°35'611.6
2018-Jul-13 23:58N 42°30' E 005°41'511.5
2018-Jul-13 23:30N 42°33' E 005°47'611.6
2018-Jul-13 23:00N 42°37' E 005°53'611.5
2018-Jul-13 22:30N 42°40' E 005°60'611.3
2018-Jul-13 22:00N 42°44' E 006°05'611.7
2018-Jul-13 21:30N 42°47' E 006°12'612.0
2018-Jul-13 21:00N 42°51' E 006°19'612.1
2018-Jul-13 20:30N 42°54' E 006°25'611.9
2018-Jul-13 20:00N 42°58' E 006°32'611.9
2018-Jul-13 19:30N 43°01' E 006°38'612.1
2018-Jul-13 19:00N 43°05' E 006°45'612.2
2018-Jul-13 18:30N 43°09' E 006°51'612.3
2018-Jul-13 18:00N 43°12' E 006°58'612.1
2018-Jul-13 17:30N 43°16' E 007°05'612.2
2018-Jul-13 17:00N 43°19' E 007°12'612.1
2018-Jul-13 16:30N 43°23' E 007°18'611.9
2018-Jul-13 16:00N 43°27' E 007°25'611.6
2018-Jul-13 15:30N 43°30' E 007°31'711.9
2018-Jul-13 14:55N 43°35' E 007°39'1312.0
2018-Jul-13 13:50N 43°42' E 007°53'411.9
2018-Jul-13 13:29N 43°45' E 007°58'612.0
2018-Jul-13 13:00N 43°48' E 008°04'612.1
2018-Jul-13 12:30N 43°52' E 008°11'612.0
2018-Jul-13 12:00N 43°56' E 008°17'612.4
2018-Jul-13 11:30N 44°01' E 008°22'714.5
2018-Jul-13 11:00N 44°07' E 008°28'714.6
2018-Jul-13 10:30N 44°13' E 008°34'714.6
2018-Jul-13 10:00N 44°19' E 008°40'713.1
2018-Jul-13 09:30N 44°25' E 008°45'2 4.1
2018-Jul-13 08:58N 44°25' E 008°48'0 0.0
2018-Jul-13 08:28N 44°25' E 008°48'0 0.0
2018-Jul-13 07:58N 44°25' E 008°48'0 0.0
2018-Jul-13 07:28N 44°25' E 008°48'0 0.0
2018-Jul-13 06:58N 44°25' E 008°48'0 0.0
2018-Jul-13 06:28N 44°25' E 008°48'0 0.0
2018-Jul-13 05:58N 44°25' E 008°48'0 0.0
2018-Jul-13 05:28N 44°25' E 008°48'0 0.0
2018-Jul-13 04:58N 44°25' E 008°48'0 0.0
2018-Jul-13 04:28N 44°25' E 008°48'0 0.0
2018-Jul-13 03:58N 44°25' E 008°48'0 0.0
2018-Jul-13 03:28N 44°25' E 008°48'0 0.0
2018-Jul-13 02:58N 44°25' E 008°48'0 0.0
2018-Jul-13 02:28N 44°25' E 008°48'0 0.0
2018-Jul-13 01:58N 44°25' E 008°48'0 0.0
2018-Jul-13 01:28N 44°25' E 008°48'0 0.0
2018-Jul-13 00:58N 44°25' E 008°48'0 0.0
2018-Jul-13 00:28N 44°25' E 008°48'0 0.0
2018-Jul-12 23:58N 44°25' E 008°48'0 0.0
2018-Jul-12 23:28N 44°25' E 008°48'0 0.0
2018-Jul-12 22:58N 44°25' E 008°48'0 0.0
2018-Jul-12 22:28N 44°25' E 008°48'0 0.0
2018-Jul-12 21:58N 44°25' E 008°48'0 0.0
2018-Jul-12 21:28N 44°25' E 008°48'0 0.0
2018-Jul-12 20:58N 44°25' E 008°48'0 0.0
2018-Jul-12 20:28N 44°25' E 008°48'0 0.0
2018-Jul-12 19:58N 44°25' E 008°48'0 0.0
2018-Jul-12 19:28N 44°25' E 008°48'0 0.0
2018-Jul-12 18:58N 44°25' E 008°48'0 0.0
2018-Jul-12 18:28N 44°25' E 008°48'0 0.0
2018-Jul-12 17:58N 44°25' E 008°48'0 0.0
2018-Jul-12 17:28N 44°25' E 008°48'0 0.0
2018-Jul-12 16:58N 44°25' E 008°48'0 0.0
2018-Jul-12 16:28N 44°25' E 008°48'0 0.0
2018-Jul-12 15:58N 44°25' E 008°48'0 0.0
2018-Jul-12 15:28N 44°25' E 008°48'0 0.4
2018-Jul-12 15:01N 44°25' E 008°47'3 5.4
2018-Jul-12 14:31N 44°24' E 008°44'4 8.1
2018-Jul-12 14:01N 44°20' E 008°44'5 9.8
2018-Jul-12 13:31N 44°15' E 008°48'713.2
2018-Jul-12 13:00N 44°09' E 008°51'816.5
2018-Jul-12 12:30N 44°02' E 008°56'816.6
2018-Jul-12 12:00N 43°55' E 009°01'816.9
2018-Jul-12 11:30N 43°47' E 009°07'816.9
2018-Jul-12 11:00N 43°39' E 009°12'816.9
2018-Jul-12 10:30N 43°32' E 009°18'816.9
2018-Jul-12 10:00N 43°24' E 009°23'816.3
2018-Jul-12 09:30N 43°17' E 009°28'815.8
2018-Jul-12 09:00N 43°10' E 009°33'815.9
2018-Jul-12 08:30N 43°03' E 009°38'2316.4
2018-Jul-12 07:07N 42°41' E 009°48'218.6
2018-Jul-12 06:59N 42°39' E 009°49'3518.3
2018-Jul-12 05:04N 42°10' E 010°15'119.4
2018-Jul-12 05:00N 42°09' E 010°17'8218.2
2018-Jul-12 00:30N 41°15' E 011°39'917.9
2018-Jul-12 00:01N 41°10' E 011°48'917.8
2018-Jul-11 23:30N 41°04' E 011°57'3017.9
2018-Jul-11 21:49N 40°44' E 012°27'618.3
2018-Jul-11 21:30N 40°40' E 012°33'918.2
2018-Jul-11 21:00N 40°34' E 012°42'918.4
2018-Jul-11 20:30N 40°28' E 012°51'1118.5
2018-Jul-11 19:54N 40°21' E 013°02'718.7
2018-Jul-11 19:30N 40°16' E 013°10'1718.6
2018-Jul-11 18:34N 40°05' E 013°27'118.6
2018-Jul-11 18:30N 40°04' E 013°28'918.5
2018-Jul-11 18:00N 39°58' E 013°37'3318.3
2018-Jul-11 16:11N 39°36' E 014°10'318.2
2018-Jul-11 16:00N 39°34' E 014°13'2018.3
2018-Jul-11 14:55N 39°21' E 014°33'3618.4
2018-Jul-11 12:58N 38°58' E 015°07'1418.5
2018-Jul-11 12:14N 38°49' E 015°20'518.6
2018-Jul-11 11:59N 38°45' E 015°25'919.0
2018-Jul-11 11:30N 38°39' E 015°34'1020.5
2018-Jul-11 11:00N 38°33' E 015°44'917.3
2018-Jul-11 10:31N 38°28' E 015°53'2 2.7
2018-Jul-11 09:57N 38°28' E 015°55'0 0.0
2018-Jul-11 09:27N 38°28' E 015°55'0 0.0
2018-Jul-11 08:33N 38°28' E 015°55'0 0.0
2018-Jul-11 08:21N 38°28' E 015°55'0 0.0
2018-Jul-11 07:27N 38°28' E 015°55'0 0.0
2018-Jul-11 06:51N 38°28' E 015°55'0 0.0
2018-Jul-11 06:15N 38°28' E 015°55'0 0.0
2018-Jul-11 05:57N 38°28' E 015°55'0 0.0
2018-Jul-11 05:27N 38°28' E 015°55'0 0.0
2018-Jul-11 04:57N 38°28' E 015°55'0 0.0
2018-Jul-11 04:18N 38°28' E 015°55'0 0.0
2018-Jul-11 04:00N 38°28' E 015°55'0 0.0
2018-Jul-11 03:24N 38°28' E 015°55'0 0.0
2018-Jul-11 03:00N 38°28' E 015°55'0 0.0
2018-Jul-11 02:18N 38°28' E 015°55'0 0.0
2018-Jul-11 01:54N 38°28' E 015°55'0 0.0
2018-Jul-11 01:30N 38°28' E 015°55'0 0.0
2018-Jul-11 01:00N 38°28' E 015°55'0 0.0
2018-Jul-11 00:30N 38°28' E 015°55'0 0.0
2018-Jul-10 23:36N 38°28' E 015°55'0 0.0
2018-Jul-10 23:30N 38°28' E 015°55'0 0.0
2018-Jul-10 21:18N 38°28' E 015°55'0 0.0
2018-Jul-10 18:06N 38°28' E 015°55'0 0.0
2018-Jul-10 18:00N 38°28' E 015°55'0 0.0
2018-Jul-10 15:54N 38°28' E 015°55'0 0.0
2018-Jul-10 15:30N 38°28' E 015°55'0 0.0
2018-Jul-10 14:54N 38°28' E 015°55'0 0.0
2018-Jul-10 14:30N 38°28' E 015°55'0 0.0
2018-Jul-10 14:00N 38°28' E 015°55'0 0.0
2018-Jul-10 13:06N 38°28' E 015°55'0 0.0
2018-Jul-10 12:54N 38°28' E 015°55'0 0.0
2018-Jul-10 12:30N 38°28' E 015°55'0 0.0
2018-Jul-10 11:06N 38°28' E 015°55'0 0.0
2018-Jul-10 11:00N 38°28' E 015°55'0 0.4
2018-Jul-10 10:30N 38°28' E 015°55'0 0.0
2018-Jul-10 10:00N 38°28' E 015°55'0 0.0
2018-Jul-10 09:30N 38°28' E 015°55'0 0.0
2018-Jul-10 06:45N 38°28' E 015°55'0 0.0
2018-Jul-10 06:21N 38°28' E 015°55'0 0.0
2018-Jul-10 05:45N 38°28' E 015°55'0 0.0
2018-Jul-10 02:51N 38°28' E 015°55'0 0.0
2018-Jul-10 01:21N 38°28' E 015°55'0 0.0
2018-Jul-10 00:33N 38°28' E 015°55'0 0.0
2018-Jul-09 23:51N 38°28' E 015°55'0 0.0
2018-Jul-09 23:27N 38°28' E 015°55'  

Dump ship's entire track history